Time;durP1;ratioP1;P1;durP2;ratioP2;P2;SDS_P1;SDS_P2;PMS_P1;PMS_P2;Temp;Humidity;BMP_temperature;BMP_pressure;BME280_temperature;BME280_humidity;BME280_pressure;Samples;Min_cycle;Max_cycle;Signal;HPM_P1;HPM_P2
2022/05/13 00:02:21;;;;;;;6.30;1.70;;;;;;;10.47;83.11;101791.44;5107094;27;20319;-61
2022/05/13 00:04:47;;;;;;;7.43;2.22;;;;;;;10.44;83.46;101792.19;5107251;28;20138;-61
2022/05/13 00:07:12;;;;;;;8.48;1.98;;;;;;;10.37;82.96;101791.81;5106948;28;20027;-61
2022/05/13 00:12:21;;;;;;;8.50;2.03;;;;;;;10.23;84.21;101792.03;5107382;28;20068;-61
2022/05/13 00:14:47;;;;;;;9.82;2.25;;;;;;;10.16;84.63;101789.97;5107053;27;20027;-62
2022/05/13 00:17:12;;;;;;;5.93;2.55;;;;;;;10.05;85.34;101790.34;5106586;28;20677;-62
2022/05/13 00:19:38;;;;;;;8.88;2.42;;;;;;;10.00;86.80;101798.69;5106173;28;20015;-61
2022/05/13 00:22:04;;;;;;;6.95;2.65;;;;;;;9.97;86.67;101795.13;5106890;28;20036;-61
2022/05/13 00:24:30;;;;;;;9.13;2.85;;;;;;;9.96;87.03;101789.88;5106806;28;20044;-61
2022/05/13 00:26:55;;;;;;;9.82;2.63;;;;;;;9.98;87.49;101801.19;5106282;28;20175;-62
2022/05/13 00:29:20;;;;;;;9.60;3.05;;;;;;;10.00;87.29;101791.78;5106952;28;20016;-62
2022/05/13 00:31:46;;;;;;;7.30;2.88;;;;;;;10.03;87.80;101794.53;5106684;28;20024;-62
2022/05/13 00:34:13;;;;;;;8.95;2.50;;;;;;;10.06;87.75;101794.69;5106421;28;20035;-63
2022/05/13 00:36:38;;;;;;;6.63;2.42;;;;;;;10.05;87.94;101790.34;5106995;28;20023;-61
2022/05/13 00:39:04;;;;;;;12.60;3.50;;;;;;;10.02;88.18;101784.13;5106733;28;20439;-62
2022/05/13 00:41:30;;;;;;;8.23;3.67;;;;;;;10.01;88.48;101787.50;5108960;28;20057;-62
2022/05/13 00:43:56;;;;;;;9.38;3.70;;;;;;;9.97;88.98;101789.03;5109032;28;20048;-62
2022/05/13 00:46:24;;;;;;;11.38;3.20;;;;;;;10.04;88.34;101780.78;5110949;28;20566;-61
2022/05/13 00:48:50;;;;;;;11.82;3.30;;;;;;;10.11;88.85;101791.44;5110692;28;20095;-62
2022/05/13 00:51:20;;;;;;;6.53;2.50;;;;;;;10.16;87.95;101788.28;5110003;28;20111;-62
2022/05/13 00:53:47;;;;;;;9.30;3.00;;;;;;;10.19;88.06;101790.09;5110227;28;20023;-62
2022/05/13 00:56:13;;;;;;;6.50;2.50;;;;;;;10.17;87.35;101781.38;5110822;28;20042;-61
2022/05/13 00:58:42;;;;;;;8.30;2.53;;;;;;;10.20;87.00;101782.41;5110504;28;20215;-62
2022/05/13 01:01:07;;;;;;;10.48;2.88;;;;;;;10.20;85.08;101777.22;5109962;28;20175;-62
2022/05/13 01:03:36;;;;;;;5.97;2.30;;;;;;;10.21;84.38;101789.38;5109973;27;20027;-62
2022/05/13 01:06:05;;;;;;;6.75;2.70;;;;;;;10.25;84.09;101779.16;5107563;28;20498;-61
2022/05/13 01:08:32;;;;;;;6.50;2.60;;;;;;;10.28;83.01;101787.06;5110568;27;20020;-61
2022/05/13 01:11:00;;;;;;;7.45;2.40;;;;;;;10.27;81.90;101786.19;5109694;28;20122;-62
2022/05/13 01:13:29;;;;;;;8.25;1.92;;;;;;;10.25;81.63;101779.16;5110260;28;20034;-61
2022/05/13 01:15:55;;;;;;;6.28;2.20;;;;;;;10.24;81.84;101778.25;5110043;28;20119;-62
2022/05/13 01:18:40;;;;;;;8.07;2.03;;;;;;;10.19;80.82;101791.00;5110344;27;20515;-61
2022/05/13 01:21:08;;;;;;;7.72;2.05;;;;;;;10.16;80.76;101779.59;5110501;28;20585;-62
2022/05/13 01:23:37;;;;;;;5.28;1.92;;;;;;;10.11;80.65;101774.19;5109930;28;20027;-62
2022/05/13 01:26:06;;;;;;;4.10;1.88;;;;;;;10.11;80.32;101775.91;5089518;28;20380;-61
2022/05/13 01:28:38;;;;;;;5.88;2.05;;;;;;;10.07;80.21;101770.56;5089522;28;20483;-62
2022/05/13 01:31:05;;;;;;;;;;;;;;;10.05;80.02;101777.38;5108344;28;20024;-61
2022/05/13 01:33:31;;;;;;;5.30;1.95;;;;;;;10.05;79.55;101776.50;5109642;28;20274;-61
2022/05/13 01:35:59;;;;;;;5.88;1.55;;;;;;;10.06;80.18;101783.44;5109801;28;20044;-61
2022/05/13 01:38:33;;;;;;;9.57;2.22;;;;;;;10.04;78.93;101782.47;5109160;27;20027;-62
2022/05/13 01:40:58;;;;;;;5.47;1.60;;;;;;;9.98;78.91;101780.47;5109719;28;20122;-61
2022/05/13 01:43:25;;;;;;;5.63;1.98;;;;;;;9.98;79.20;101788.25;5109724;28;20034;-62
2022/05/13 01:45:51;;;;;;;5.03;1.38;;;;;;;9.93;79.56;101782.81;5109317;28;20028;-61
2022/05/13 01:48:17;;;;;;;4.38;1.65;;;;;;;9.90;79.40;101787.84;5109481;28;20028;-61
2022/05/13 01:50:43;;;;;;;5.95;1.52;;;;;;;9.91;79.98;101786.16;5109581;28;20019;-61
2022/05/13 01:53:09;;;;;;;5.15;1.45;;;;;;;9.92;79.11;101786.25;5109194;28;20054;-62
2022/05/13 01:55:34;;;;;;;6.45;1.42;;;;;;;9.94;79.43;101783.72;5109185;28;20035;-62
2022/05/13 01:58:00;;;;;;;7.30;2.22;;;;;;;9.97;79.42;101784.75;5109463;28;20084;-62
2022/05/13 02:00:26;;;;;;;5.68;1.58;;;;;;;10.00;79.29;101786.59;5108894;28;20024;-61
2022/05/13 02:05:35;;;;;;;4.65;1.42;;;;;;;10.05;79.14;101782.56;5109700;28;20520;-62
2022/05/13 02:08:01;;;;;;;6.95;1.48;;;;;;;10.03;78.93;101789.38;5109650;28;20023;-62
2022/05/13 02:10:26;;;;;;;6.82;1.60;;;;;;;10.05;78.97;101777.38;5107413;28;20031;-61
2022/05/13 02:12:51;;;;;;;5.60;1.83;;;;;;;10.05;79.16;101782.56;5107496;28;20024;-62
2022/05/13 02:15:17;;;;;;;6.22;1.42;;;;;;;10.00;79.69;101784.00;5109360;28;20020;-61
2022/05/13 02:17:43;;;;;;;8.15;1.67;;;;;;;10.02;79.35;101776.34;5106271;28;20026;-62
2022/05/13 02:20:09;;;;;;;6.88;1.88;;;;;;;10.01;79.69;101778.03;5108494;28;20186;-61
2022/05/13 02:22:34;;;;;;;6.00;1.95;;;;;;;10.01;80.34;101785.81;5105808;28;20652;-61
2022/05/13 02:25:00;;;;;;;9.20;1.98;;;;;;;10.00;80.58;101778.81;5088594;28;20399;-62
2022/05/13 02:27:26;;;;;;;6.97;1.58;;;;;;;9.95;81.42;101772.53;5088113;28;20032;-61
2022/05/13 02:29:51;;;;;;;9.73;1.98;;;;;;;9.97;81.82;101774.41;5088356;28;20054;-62
2022/05/13 02:32:16;;;;;;;5.72;1.85;;;;;;;9.99;81.55;101773.59;5088127;28;20381;-61
2022/05/13 02:34:41;;;;;;;7.88;1.92;;;;;;;10.00;81.58;101770.19;5088799;28;20048;-62
2022/05/13 02:37:07;;;;;;;8.10;2.38;;;;;;;10.01;81.91;101783.22;5091091;28;20134;-63
2022/05/13 02:39:32;;;;;;;7.57;2.03;;;;;;;9.99;82.13;101771.88;5088265;28;20118;-62
2022/05/13 02:41:58;;;;;;;7.50;1.70;;;;;;;10.01;81.96;101775.44;5087889;28;20024;-61
2022/05/13 02:44:23;;;;;;;8.07;2.05;;;;;;;9.99;82.17;101782.25;5088109;28;20031;-62
2022/05/13 02:46:49;;;;;;;8.48;2.13;;;;;;;9.97;82.68;101778.69;5088048;28;20302;-62
2022/05/13 02:49:15;;;;;;;12.48;2.22;;;;;;;9.93;82.91;101772.47;5087651;28;20056;-62
2022/05/13 02:51:40;;;;;;;6.55;2.10;;;;;;;9.95;82.98;101767.34;5105678;28;20024;-61
2022/05/13 02:54:07;;;;;;;7.30;1.98;;;;;;;9.93;83.15;101772.47;5108361;28;20032;-62
2022/05/13 02:56:33;;;;;;;8.45;2.30;;;;;;;9.94;83.49;101769.09;5108580;28;20464;-61
2022/05/13 02:58:58;;;;;;;9.25;2.90;;;;;;;9.96;83.56;101767.47;5107981;28;20026;-61
2022/05/13 03:01:24;;;;;;;7.78;2.63;;;;;;;9.99;83.82;101768.41;5107667;28;20028;-62
2022/05/13 03:03:50;;;;;;;9.38;2.78;;;;;;;10.01;83.97;101770.28;5106148;28;20015;-62
2022/05/13 03:06:16;;;;;;;9.98;2.90;;;;;;;10.04;84.19;101764.34;5088434;28;20102;-62
2022/05/13 03:08:41;;;;;;;8.32;2.47;;;;;;;10.05;84.29;101777.38;5088335;28;20024;-61
2022/05/13 03:11:07;;;;;;;10.48;3.60;;;;;;;10.06;84.81;101773.97;5088036;28;20357;-62
2022/05/13 03:13:33;;;;;;;10.05;3.13;;;;;;;10.07;85.27;101767.97;5087772;28;20502;-62
2022/05/13 03:16:09;;;;;;;9.43;3.33;;;;;;;10.09;85.14;101768.94;5087926;28;20027;-62
2022/05/13 03:18:34;;;;;;;8.60;3.03;;;;;;;10.12;85.62;101772.50;5087604;28;20107;-62
2022/05/13 03:21:00;;;;;;;6.75;3.03;;;;;;;10.16;84.86;101774.44;5086673;28;20153;-62
2022/05/13 03:23:26;;;;;;;13.30;3.25;;;;;;;10.19;85.39;101765.09;5088069;28;20444;-62
2022/05/13 03:25:52;;;;;;;9.43;2.83;;;;;;;10.13;86.53;101764.78;5087216;28;20052;-61
2022/05/13 03:28:17;;;;;;;9.38;3.45;;;;;;;10.17;86.49;101758.06;5090156;28;20047;-61
2022/05/13 03:30:43;;;;;;;10.77;3.63;;;;;;;10.15;86.97;101757.97;5087429;28;20064;-61
2022/05/13 03:33:09;;;;;;;9.05;3.13;;;;;;;10.14;86.70;101756.22;5088009;28;20040;-61
2022/05/13 03:35:34;;;;;;;12.05;3.60;;;;;;;10.09;87.18;101762.88;5090001;28;20059;-62
2022/05/13 03:38:00;;;;;;;13.15;3.47;;;;;;;10.06;87.38;101761.03;5087206;28;20026;-60
2022/05/13 03:40:25;;;;;;;9.07;3.75;;;;;;;10.07;87.63;101764.50;5086233;28;20080;-62
2022/05/13 03:42:51;;;;;;;8.23;2.97;;;;;;;10.07;87.85;101765.38;5085328;28;20024;-62
2022/05/13 03:45:18;;;;;;;8.27;3.88;;;;;;;10.08;88.00;101768.84;5100238;28;20081;-62
2022/05/13 03:47:44;;;;;;;9.15;3.38;;;;;;;10.03;88.11;101771.25;5088022;28;20030;-62
2022/05/13 03:50:11;;;;;;;9.07;3.60;;;;;;;9.98;88.44;101759.78;5092614;28;20016;-61
2022/05/13 03:52:37;;;;;;;6.70;3.30;;;;;;;9.97;88.57;101764.06;5085290;28;20894;-63
2022/05/13 03:55:05;;;;;;;11.85;3.85;;;;;;;9.97;88.88;101761.47;5085160;28;20024;-62
2022/05/13 03:57:31;;;;;;;7.95;3.05;;;;;;;9.97;88.81;101765.75;5086544;28;20028;-62
2022/05/13 03:59:57;;;;;;;8.50;3.25;;;;;;;9.97;89.28;101757.97;5094980;28;20796;-62
2022/05/13 04:02:23;;;;;;;10.93;4.00;;;;;;;9.92;89.48;101768.13;5088939;28;20111;-62
2022/05/13 04:10:16;;;;;;;10.85;4.18;;;;;;;9.91;89.91;101768.91;5107239;28;20097;-62
2022/05/13 04:18:09;;;;;;;10.75;3.78;;;;;;;9.87;90.91;101766.09;5104852;28;20403;-62
2022/05/13 04:20:35;;;;;;;13.82;4.03;;;;;;;9.84;91.07;101772.91;5107957;28;20028;-61
2022/05/13 04:23:00;;;;;;;11.65;4.00;;;;;;;9.87;91.36;101763.50;5107368;28;20147;-62
2022/05/13 04:25:26;;;;;;;11.43;4.10;;;;;;;9.87;91.37;101768.69;5106999;28;20023;-61
2022/05/13 04:27:52;;;;;;;13.57;3.80;;;;;;;9.91;90.80;101770.63;5098265;28;20482;-61
2022/05/13 04:30:17;;;;;;;12.70;4.53;;;;;;;9.89;91.20;101769.66;5095358;28;20047;-62
2022/05/13 04:32:43;;;;;;;12.82;4.10;;;;;;;9.80;91.45;101773.59;5087298;28;20111;-62
2022/05/13 04:35:08;;;;;;;10.38;4.00;;;;;;;9.85;92.20;101774.69;5088195;28;20108;-61
2022/05/13 04:37:34;;;;;;;9.43;3.97;;;;;;;9.86;91.61;101775.56;5087069;28;20081;-62
2022/05/13 04:39:59;;;;;;;9.45;3.60;;;;;;;9.90;92.04;101792.13;5086327;28;20541;-62
2022/05/13 04:45:09;;;;;;;12.70;4.28;;;;;;;9.88;92.22;101784.28;5105050;28;20108;-61
2022/05/13 04:50:20;;;;;;;13.35;4.18;;;;;;;9.95;92.29;101801.91;5106357;28;20379;-60
2022/05/13 04:52:46;;;;;;;12.93;4.35;;;;;;;10.03;91.97;101802.31;5086694;28;20541;-62
2022/05/13 04:55:11;;;;;;;11.38;4.40;;;;;;;10.11;91.64;101801.81;5087118;28;20203;-61
2022/05/13 04:57:37;;;;;;;11.18;4.20;;;;;;;10.21;91.12;101802.34;5087322;28;20718;-60
2022/05/13 05:00:05;;;;;;;8.13;3.67;;;;;;;10.26;91.29;101801.66;5086764;28;20024;-61
2022/05/13 05:02:32;;;;;;;9.23;4.38;;;;;;;10.27;90.64;101799.13;5102653;28;20039;-61
2022/05/13 05:04:58;;;;;;;10.43;4.28;;;;;;;10.28;90.46;101808.69;5103189;28;20117;-62
2022/05/13 05:07:23;;;;;;;10.75;3.97;;;;;;;10.27;90.95;101814.66;5087725;28;20500;-60
2022/05/13 05:09:48;;;;;;;13.80;4.97;;;;;;;10.25;91.23;101811.16;5087135;28;20023;-60
2022/05/13 05:12:14;;;;;;;10.25;3.95;;;;;;;10.31;90.60;101813.13;5087006;28;20082;-60
2022/05/13 05:14:39;;;;;;;10.23;3.88;;;;;;;10.30;90.98;101822.63;5089182;28;20019;-61
2022/05/13 05:17:05;;;;;;;9.52;4.40;;;;;;;10.31;91.38;101821.78;5100632;28;20123;-61
2022/05/13 05:19:31;;;;;;;8.27;4.03;;;;;;;10.39;91.33;101823.88;5093323;28;20063;-61
2022/05/13 05:21:56;;;;;;;12.07;4.40;;;;;;;10.39;91.33;101826.47;5102069;28;20538;-61
2022/05/13 05:24:22;;;;;;;10.52;4.22;;;;;;;10.39;91.08;101834.22;5105760;28;20084;-61
2022/05/13 05:26:47;;;;;;;11.85;4.65;;;;;;;10.42;91.42;101829.19;5111587;27;20117;-61
2022/05/13 05:29:13;;;;;;;11.38;4.22;;;;;;;10.40;91.61;101831.72;5122336;27;20096;-62
2022/05/13 05:31:38;;;;;;;11.35;4.78;;;;;;;10.47;90.63;101824.25;5115139;27;20070;-61
2022/05/13 05:34:04;;;;;;;14.48;4.53;;;;;;;10.52;90.86;101847.00;5100189;28;20067;-62
2022/05/13 05:36:29;;;;;;;15.68;4.43;;;;;;;10.52;90.18;101847.00;5096027;28;20036;-62
2022/05/13 05:38:54;;;;;;;11.05;4.70;;;;;;;10.60;90.36;101849.06;5104357;27;20114;-62
2022/05/13 05:41:20;;;;;;;10.02;4.43;;;;;;;10.62;90.26;101861.28;5107715;28;20388;-61
2022/05/13 05:43:46;;;;;;;10.85;4.95;;;;;;;10.65;90.15;101853.66;5089274;28;20085;-62
2022/05/13 05:46:11;;;;;;;9.27;3.92;;;;;;;10.73;90.40;101851.44;5097062;28;20360;-60
2022/05/13 05:48:36;;;;;;;13.20;4.55;;;;;;;10.81;89.33;101860.47;5109730;28;20449;-61
2022/05/13 05:51:02;;;;;;;13.50;4.15;;;;;;;10.87;88.86;101864.16;5110283;28;20039;-61
2022/05/13 05:58:58;;;;;;;8.02;3.72;;;;;;;11.01;88.37;101878.66;5109793;28;20135;-61
2022/05/13 06:01:23;;;;;;;11.02;4.10;;;;;;;11.08;87.85;101884.16;5109092;28;20291;-62
2022/05/13 06:03:49;;;;;;;11.15;4.30;;;;;;;11.05;87.75;101885.78;5108978;28;20452;-62
2022/05/13 06:06:15;;;;;;;10.65;4.60;;;;;;;11.05;88.31;101878.00;5108425;28;20059;-61
2022/05/13 06:08:41;;;;;;;13.77;4.38;;;;;;;11.12;88.14;101871.38;5108084;28;20421;-61
2022/05/13 06:11:07;;;;;;;12.07;4.47;;;;;;;11.20;88.34;101887.31;5109449;27;20076;-62
2022/05/13 06:13:32;;;;;;;10.35;4.53;;;;;;;11.30;87.84;101886.03;5091507;27;20039;-62
2022/05/13 06:15:58;;;;;;;15.65;4.07;;;;;;;11.37;87.52;101887.22;5089372;28;20399;-62
2022/05/13 06:18:23;;;;;;;12.45;4.65;;;;;;;11.45;87.71;101885.84;5089135;28;20436;-62
2022/05/13 06:20:48;;;;;;;16.13;5.82;;;;;;;11.55;87.22;101881.94;5089529;28;20489;-62
2022/05/13 06:23:14;;;;;;;14.20;4.95;;;;;;;11.63;87.43;101890.06;5093873;27;20458;-62
2022/05/13 06:25:39;;;;;;;15.20;5.13;;;;;;;11.65;87.71;101888.44;5106970;27;20035;-62
2022/05/13 06:28:05;;;;;;;13.63;4.65;;;;;;;11.70;86.70;101899.03;5110360;27;20065;-62
2022/05/13 06:30:32;;;;;;;10.38;4.28;;;;;;;11.77;86.69;101901.97;5112196;27;20114;-62
2022/05/13 06:32:58;;;;;;;12.82;4.70;;;;;;;11.85;86.97;101901.41;5110034;27;20130;-62
2022/05/13 06:35:26;;;;;;;14.43;5.15;;;;;;;11.92;86.89;101903.47;5106947;27;20491;-62
2022/05/13 06:37:52;;;;;;;12.80;4.70;;;;;;;11.89;87.19;101899.00;5104404;28;20030;-63
2022/05/13 06:40:18;;;;;;;14.07;5.50;;;;;;;12.01;86.08;101897.78;5108035;28;20023;-64
2022/05/13 06:42:43;;;;;;;12.85;4.95;;;;;;;12.12;85.67;101900.88;5107791;28;20459;-63
2022/05/13 06:45:09;;;;;;;8.80;4.80;;;;;;;12.28;85.14;101906.69;5108119;28;20027;-64
2022/05/13 06:47:36;;;;;;;13.57;4.45;;;;;;;12.35;85.39;101904.44;5108223;28;20055;-64
2022/05/13 06:50:03;;;;;;;12.75;4.80;;;;;;;12.45;84.51;101910.88;5109834;27;20462;-63
2022/05/13 06:52:29;;;;;;;13.20;5.38;;;;;;;12.55;84.89;101914.78;5113530;27;20517;-63
2022/05/13 06:54:54;;;;;;;15.18;5.88;;;;;;;12.66;85.04;101915.22;5114880;27;20428;-63
2022/05/13 06:57:20;;;;;;;14.98;5.40;;;;;;;12.75;84.51;101913.81;5110154;27;20020;-63
2022/05/13 06:59:45;;;;;;;10.45;4.97;;;;;;;12.82;83.50;101910.63;5109787;27;20118;-63
2022/05/13 07:02:10;;;;;;;9.05;4.60;;;;;;;12.94;83.20;101923.22;5111105;27;20463;-64
2022/05/13 07:04:35;;;;;;;14.38;5.05;;;;;;;13.01;82.86;101917.44;5129389;27;20027;-63
2022/05/13 07:07:01;;;;;;;13.88;5.57;;;;;;;13.09;82.73;101917.75;5126660;27;20030;-64
2022/05/13 07:09:27;;;;;;;12.00;5.13;;;;;;;13.11;82.46;101908.28;5118137;27;20023;-63
2022/05/13 07:11:54;;;;;;;10.70;4.85;;;;;;;13.15;82.56;101920.56;5129608;27;20084;-63
2022/05/13 07:14:20;;;;;;;11.13;4.95;;;;;;;13.21;81.48;101913.00;5129411;27;20019;-62
2022/05/13 07:16:45;;;;;;;13.48;5.15;;;;;;;13.27;82.05;101909.75;5129939;27;20516;-63
2022/05/13 07:19:10;;;;;;;13.65;5.18;;;;;;;13.33;81.54;101922.09;5129676;27;20022;-62
2022/05/13 07:21:36;;;;;;;10.05;5.53;;;;;;;13.42;81.19;101914.63;5128825;27;20031;-63
2022/05/13 07:24:01;;;;;;;17.25;8.48;;;;;;;13.61;81.27;101904.94;5109947;27;20023;-63
2022/05/13 07:26:27;;;;;;;13.43;6.53;;;;;;;13.75;80.37;101917.56;5107326;28;20024;-63
2022/05/13 07:28:52;;;;;;;10.48;5.18;;;;;;;13.97;80.15;101921.84;5108673;28;20031;-63
2022/05/13 07:31:17;;;;;;;7.50;4.82;;;;;;;14.19;79.22;101914.75;5108274;28;20099;-63
2022/05/13 07:33:42;;;;;;;13.80;5.70;;;;;;;14.37;77.26;101909.25;5108466;28;20027;-63
2022/05/13 07:36:08;;;;;;;8.73;4.35;;;;;;;14.51;76.49;101921.88;5108656;28;20104;-63
2022/05/13 07:38:34;;;;;;;10.98;5.32;;;;;;;14.61;75.30;101926.56;5108162;28;20513;-63
2022/05/13 07:41:19;;;;;;;9.98;5.35;;;;;;;14.79;75.12;101922.78;5108506;28;20020;-63
2022/05/13 07:43:45;;;;;;;9.18;4.78;;;;;;;15.07;74.33;101928.91;5108320;28;20027;-63
2022/05/13 07:46:11;;;;;;;12.05;4.78;;;;;;;15.25;74.12;101930.28;5108820;28;20039;-63
2022/05/13 07:48:39;;;;;;;9.13;4.07;;;;;;;15.36;71.85;101923.66;5108103;28;20023;-63
2022/05/13 07:51:04;;;;;;;11.75;3.95;;;;;;;15.52;71.53;101931.06;5108042;28;20081;-63
2022/05/13 07:53:29;;;;;;;11.93;4.55;;;;;;;15.59;70.35;101918.22;5107805;28;20444;-63
2022/05/13 07:55:55;;;;;;;15.32;4.68;;;;;;;15.71;69.75;101922.91;5107790;28;20031;-64
2022/05/13 07:58:20;;;;;;;12.63;5.55;;;;;;;15.77;69.48;101932.66;5107793;28;20035;-63
2022/05/13 08:00:46;;;;;;;8.90;4.47;;;;;;;15.83;69.40;101932.78;5107449;28;20107;-63
2022/05/13 08:03:14;;;;;;;6.95;4.30;;;;;;;15.91;69.09;101933.03;5106481;28;20399;-63
2022/05/13 08:05:46;;;;;;;9.20;4.05;;;;;;;15.85;68.60;101928.50;5104082;28;20491;-64
2022/05/13 08:08:11;;;;;;;9.25;3.95;;;;;;;15.70;67.30;101935.94;5107984;28;20185;-63
2022/05/13 08:10:38;;;;;;;7.53;3.92;;;;;;;15.62;67.70;101933.09;5108627;28;20941;-63
2022/05/13 08:13:05;;;;;;;13.20;4.05;;;;;;;15.49;68.27;101942.28;5107953;28;20491;-64
2022/05/13 08:15:30;;;;;;;9.63;3.70;;;;;;;15.39;68.84;101941.16;5107228;28;20035;-63
2022/05/13 08:17:56;;;;;;;9.25;3.65;;;;;;;15.22;68.04;101956.28;5093440;28;20293;-63
2022/05/13 08:20:24;;;;;;;10.48;4.15;;;;;;;15.28;70.13;101948.66;5089304;28;20035;-63
2022/05/13 08:22:50;;;;;;;9.00;3.92;;;;;;;15.42;68.72;101951.69;5089626;28;20429;-63
2022/05/13 08:25:15;;;;;;;11.48;3.88;;;;;;;15.46;67.97;101955.25;5089344;28;20115;-63
2022/05/13 08:27:41;;;;;;;9.18;3.97;;;;;;;15.57;68.30;101950.34;5086583;28;20046;-63
2022/05/13 08:30:09;;;;;;;11.18;3.65;;;;;;;15.70;68.39;101946.38;5087985;28;20077;-64
2022/05/13 08:32:34;;;;;;;9.40;4.07;;;;;;;15.53;67.20;101944.16;5087087;28;20027;-63
2022/05/13 08:35:00;;;;;;;9.15;4.25;;;;;;;15.55;67.33;101955.53;5086866;28;20067;-63
2022/05/13 08:37:25;;;;;;;12.93;4.60;;;;;;;15.57;68.25;101956.47;5089083;28;20059;-63
2022/05/13 08:39:50;;;;;;;12.18;3.97;;;;;;;15.78;67.62;101955.31;5086394;28;20035;-63
2022/05/13 08:42:25;;;;;;;11.10;3.17;;;;;;;16.16;65.63;101954.63;5087313;28;20107;-63
2022/05/13 08:44:54;;;;;;;11.73;3.45;;;;;;;16.50;64.09;101945.84;5091070;28;20054;-63
2022/05/13 08:47:54;;;;;;;10.85;3.00;;;;;;;16.60;63.17;101952.22;5088809;28;20414;-63
2022/05/13 08:50:22;;;;;;;9.57;3.25;;;;;;;16.65;62.43;101948.88;5093154;28;20046;-64
2022/05/13 08:53:19;;;;;;;11.05;3.20;;;;;;;16.65;62.34;101956.72;5087475;28;20167;-64
2022/05/13 08:55:49;;;;;;;10.57;3.17;;;;;;;16.60;62.70;101963.56;5102992;28;20039;-63
2022/05/13 08:58:37;;;;;;;8.90;2.85;;;;;;;16.47;61.60;101951.91;5106783;28;20024;-64
2022/05/13 09:01:08;;;;;;;9.02;2.85;;;;;;;16.39;62.47;101951.72;5107092;28;20483;-63
2022/05/13 09:03:39;;;;;;;7.57;2.50;;;;;;;16.25;61.82;101953.97;5098359;28;20489;-63
2022/05/13 09:06:16;;;;;;;8.20;3.15;;;;;;;16.10;62.89;101961.41;5091450;28;20111;-63
2022/05/13 09:08:42;;;;;;;10.90;2.88;;;;;;;16.04;63.20;101959.53;5105280;28;20035;-63
2022/05/13 09:11:12;;;;;;;10.73;3.25;;;;;;;16.25;64.06;101951.34;5111152;28;20035;-63
2022/05/13 09:14:10;;;;;;;9.10;2.78;;;;;;;16.45;62.19;101953.59;5105051;28;20023;-64
2022/05/13 09:16:42;;;;;;;10.20;3.08;;;;;;;16.84;60.91;101953.66;5105037;28;20067;-63
2022/05/13 09:19:14;;;;;;;8.07;2.85;;;;;;;16.95;59.55;101957.41;5105310;28;20023;-64
2022/05/13 09:21:43;;;;;;;8.23;2.78;;;;;;;17.17;60.66;101960.53;5106244;28;20019;-63
2022/05/13 09:24:09;;;;;;;7.97;2.33;;;;;;;17.31;59.60;101954.72;5103371;28;20399;-64
2022/05/13 09:26:38;;;;;;;7.15;2.30;;;;;;;17.45;58.11;101961.13;5107080;28;20019;-64
2022/05/13 09:29:13;;;;;;;5.07;2.08;;;;;;;17.67;57.72;101960.69;5103207;28;20027;-64
2022/05/13 09:31:45;;;;;;;4.43;1.45;;;;;;;17.92;57.47;101956.81;5091634;28;20407;-63
2022/05/13 09:34:49;;;;;;;6.55;1.70;;;;;;;18.19;57.14;101960.84;5099464;28;20494;-63
2022/05/13 09:37:28;;;;;;;9.07;2.63;;;;;;;18.32;56.37;101967.19;5106134;28;20088;-64
2022/05/13 09:40:18;;;;;;;8.50;2.38;;;;;;;18.44;55.80;101966.53;5092899;28;20382;-64
2022/05/13 09:42:48;;;;;;;6.78;1.70;;;;;;;18.51;53.42;101956.16;5098016;28;20034;-63
2022/05/13 09:45:18;;;;;;;5.90;2.13;;;;;;;18.40;53.21;101964.72;5099253;28;20012;-64
2022/05/13 09:47:57;;;;;;;7.50;2.40;;;;;;;18.44;52.77;101966.53;5101332;28;20228;-63
2022/05/13 09:50:27;;;;;;;5.75;1.73;;;;;;;18.51;52.82;101971.88;5098593;28;20024;-63
2022/05/13 09:52:53;;;;;;;5.40;1.83;;;;;;;18.59;53.09;101970.25;5102190;28;20028;-63
2022/05/13 09:55:37;;;;;;;7.22;1.85;;;;;;;18.76;53.25;101977.53;5102801;28;20016;-64
2022/05/13 09:58:07;;;;;;;4.68;2.38;;;;;;;18.87;51.06;101970.69;5103433;28;20024;-64
2022/05/13 10:00:38;;;;;;;8.38;2.15;;;;;;;18.70;50.85;101963.47;5106210;28;20042;-64
2022/05/13 10:03:18;;;;;;;6.32;1.88;;;;;;;18.68;52.44;101978.28;5103000;28;20030;-64
2022/05/13 10:05:43;;;;;;;4.93;2.03;;;;;;;18.51;52.81;101977.13;5105138;28;20047;-65
2022/05/13 10:08:16;;;;;;;7.25;2.20;;;;;;;18.29;52.98;101980.28;5102350;28;20131;-64
2022/05/13 10:14:26;;;;;;;8.13;2.25;;;;;;;18.15;53.35;101974.75;5098811;28;20038;-64
2022/05/13 10:16:55;;;;;;;4.15;1.67;;;;;;;18.38;54.78;101982.19;5101073;28;20471;-64
2022/05/13 10:19:36;;;;;;;6.85;1.83;;;;;;;18.45;52.72;101981.44;5097440;28;20018;-63
2022/05/13 10:22:13;;;;;;;6.47;1.67;;;;;;;18.53;50.91;101976.28;5098796;28;20019;-64
2022/05/13 10:24:57;;;;;;;6.50;1.67;;;;;;;18.75;50.95;101975.75;5099823;28;20027;-63
2022/05/13 10:27:32;;;;;;;6.35;1.70;;;;;;;18.66;50.10;101981.75;5096327;28;20062;-63
2022/05/13 10:30:05;;;;;;;7.35;1.98;;;;;;;18.42;50.53;101975.25;5099179;28;20588;-64
2022/05/13 10:32:50;;;;;;;6.72;2.47;;;;;;;18.22;51.73;101987.13;5099645;28;20764;-64
2022/05/13 10:35:19;;;;;;;7.07;1.67;;;;;;;18.00;52.46;101989.34;5099027;28;20430;-64
2022/05/13 10:38:02;;;;;;;8.70;1.92;;;;;;;17.73;51.75;101987.03;5103245;28;20549;-64
2022/05/13 10:40:35;;;;;;;6.03;1.80;;;;;;;17.88;52.05;101976.84;5096385;28;20036;-64
2022/05/13 10:43:14;;;;;;;4.80;2.13;;;;;;;18.10;51.72;101973.75;5096614;28;20023;-64
2022/05/13 10:45:42;;;;;;;5.75;1.52;;;;;;;18.28;51.48;101969.72;5101846;28;20555;-64
2022/05/13 10:48:28;;;;;;;7.90;2.40;;;;;;;18.14;50.40;101980.88;5103908;27;20250;-64
2022/05/13 10:51:07;;;;;;;5.88;1.50;;;;;;;18.11;51.49;101979.03;5097182;28;20027;-64
2022/05/13 10:54:03;;;;;;;6.43;1.85;;;;;;;17.93;50.66;101978.69;5097230;28;20041;-64
2022/05/13 10:56:52;;;;;;;4.72;1.60;;;;;;;18.06;50.74;101974.56;5100182;28;20050;-64
2022/05/13 10:59:52;;;;;;;4.65;1.35;;;;;;;18.36;50.11;101965.53;5099728;28;20031;-65
2022/05/13 11:02:26;;;;;;;5.00;1.70;;;;;;;18.60;49.60;101972.06;5098635;28;20459;-64
2022/05/13 11:05:04;;;;;;;5.40;1.92;;;;;;;18.52;49.74;101984.13;5100060;28;20352;-64
2022/05/13 11:07:54;;;;;;;6.75;2.10;;;;;;;18.75;50.78;101987.16;5097029;28;20078;-64
2022/05/13 11:10:40;;;;;;;5.13;1.63;;;;;;;19.06;51.43;101970.97;5094803;28;20493;-63
2022/05/13 11:13:11;;;;;;;5.32;1.73;;;;;;;19.19;49.03;101972.94;5100266;28;20032;-63
2022/05/13 11:16:06;;;;;;;8.52;2.55;;;;;;;19.14;48.66;101977.25;5100883;28;20028;-63
2022/05/13 11:18:49;;;;;;;3.83;1.63;;;;;;;18.98;48.60;101981.34;5102621;28;20015;-63
2022/05/13 11:21:47;;;;;;;4.03;2.00;;;;;;;18.93;49.40;101975.16;5101655;28;20103;-63
2022/05/13 11:27:43;;;;;;;4.18;2.03;;;;;;;18.72;48.98;101977.50;5092376;28;20386;-64
2022/05/13 11:30:14;;;;;;;8.10;1.50;;;;;;;18.82;48.98;101977.63;5091742;28;20030;-64
2022/05/13 11:32:56;;;;;;;4.97;1.77;;;;;;;18.80;48.51;101989.84;5102741;28;20030;-63
2022/05/13 11:35:31;;;;;;;4.28;2.08;;;;;;;18.71;48.62;101983.59;5088610;28;20055;-64
2022/05/13 11:38:04;;;;;;;4.88;1.80;;;;;;;18.58;49.63;101986.88;5087860;28;20051;-64
2022/05/13 11:40:41;;;;;;;5.15;1.90;;;;;;;18.44;49.98;101987.50;5100554;28;20047;-64
2022/05/13 11:43:21;;;;;;;7.15;2.50;;;;;;;18.41;51.51;101992.72;5087784;28;20103;-63
2022/05/13 11:46:09;;;;;;;5.53;2.22;;;;;;;18.53;51.95;101986.78;5087685;28;20020;-63
2022/05/13 11:48:46;;;;;;;8.27;2.55;;;;;;;18.65;48.65;101974.75;5087653;28;20035;-64
2022/05/13 11:51:11;;;;;;;6.75;2.10;;;;;;;18.65;48.67;101973.00;5101498;28;20027;-63
2022/05/13 11:53:50;;;;;;;4.15;1.60;;;;;;;18.94;49.46;101972.56;5107736;28;20042;-64
2022/05/13 11:56:18;;;;;;;5.57;2.28;;;;;;;19.22;48.75;101966.84;5099281;28;20032;-63
2022/05/13 11:58:56;;;;;;;4.82;1.58;;;;;;;19.45;49.53;101982.03;5093428;28;20027;-64
2022/05/13 12:01:34;;;;;;;3.70;1.88;;;;;;;19.51;47.96;101983.88;5095551;28;20043;-63
2022/05/13 12:04:11;;;;;;;10.20;2.20;;;;;;;19.36;47.35;101984.53;5092304;28;20028;-63
2022/05/13 12:06:52;;;;;;;6.55;2.28;;;;;;;19.44;48.93;101977.66;5095798;28;20050;-64
2022/05/13 12:09:24;;;;;;;8.60;2.10;;;;;;;19.47;48.77;101972.44;5107502;28;20468;-64